• Join FlightAware (Why Join?)
  • Login
  • US Flag 
01:32AM EDT


 

Airport Tracker/Info


-or-


 

Live Flight TrackerFlight Track Log ✈ N569TA ✈ 28-Apr-2013 ✈ KRVS - KOSH

Flight Track Log - Related Links

Times and Time Zones

All times are in EDT time to prevent confusion due to time zone crossing. See the N569TA flight status page for this flight to view local times or setup timezone preferences in your user account.

Time Position Orientation Groundspeed Altitude Reporting Facility
EDT Latitude Longitude Course Direction KTS MPH feet Rate Location/Type
08:11PM 36.0194 -95.9922 186° South 198 228 1,500  Level Kansas City Center
08:12PM 35.9758 -95.9978 186° South 194 223 3,500 2,340 Climbing Kansas City Center
08:13PM 35.9639 -95.9294 102° East 238 274 6,000 2,160 Climbing Kansas City Center
08:14PM 36.0156 -95.8319 57° Northeast 266 306 8,300 2,160 Climbing Kansas City Center
08:15PM 36.0658 -95.7522 52° Northeast 287 330 10,800 2,220 Climbing Kansas City Center
08:16PM 36.1133 -95.6675 55° Northeast 296 341 12,900 1,980 Climbing Kansas City Center
08:17PM 36.1622 -95.5792 56° Northeast 307 353 14,900 1,980 Climbing Kansas City Center
08:18PM 36.2150 -95.4844 55° Northeast 314 361 17,000 1,980 Climbing Kansas City Center
08:19PM 36.2642 -95.3967 55° Northeast 312 359 19,100 1,980 Climbing Kansas City Center
08:20PM 36.3108 -95.3081 57° Northeast 308 354 21,200 1,980 Climbing Kansas City Center
08:21PM 36.3586 -95.2203 56° Northeast 307 353 23,200 1,920 Climbing Kansas City Center
08:22PM 36.4056 -95.1353 56° Northeast 302 348 25,200 1,980 Climbing Kansas City Center
08:23PM 36.4556 -95.0422 56° Northeast 299 344 27,300 1,740 Climbing Kansas City Center
08:24PM 36.5006 -94.9572 57° Northeast 296 341 28,900 1,680 Climbing Kansas City Center
08:25PM 36.5556 -94.8556 56° Northeast 296 341 30,800 1,680 Climbing Kansas City Center
08:26PM 36.6006 -94.7717 56° Northeast 294 338 32,400 1,440 Climbing Kansas City Center
08:27PM 36.6472 -94.6906 54° Northeast 290 334 33,800 1,140 Climbing Kansas City Center
08:28PM 36.7169 -94.6442 28° Northeast 282 325 34,800 540 Climbing Kansas City Center
08:29PM 36.7881 -94.5889 32° Northeast 293 337 35,000 60 Climbing Kansas City Center
08:30PM 36.8681 -94.5314 30° Northeast 318 366 35,000 480 Level Kansas City Center
08:31PM 36.9661 -94.4575 31° Northeast 338 389 36,000 480 Climbing Kansas City Center
08:32PM 37.0494 -94.3958 31° Northeast 344 396 36,000 600 Level Kansas City Center
08:34PM 37.1347 -94.3328 31° Northeast 351 404 37,300 1,200 Climbing Kansas City Center
08:35PM 37.2111 -94.2756 31° Northeast 330 380 38,600 1,080 Climbing Kansas City Center
08:36PM 37.2861 -94.2200 31° Northeast 316 364 39,600 840 Climbing Kansas City Center
08:37PM 37.3597 -94.1639 31° Northeast 312 359 40,400 480 Climbing Kansas City Center
08:38PM 37.4328 -94.1078 31° Northeast 307 353 40,700 240 Climbing Kansas City Center
08:39PM 37.5147 -94.0475 30° Northeast 318 366 41,000 120 Climbing Kansas City Center
08:40PM 37.5942 -93.9861 31° Northeast 329 379 41,000  Level Kansas City Center
08:41PM 37.6958 -93.9108 30° Northeast 347 399 41,000  Level Kansas City Center
08:42PM 37.7842 -93.8442 31° Northeast 361 415 41,000  Level Kansas City Center
08:43PM 37.8706 -93.7778 31° Northeast 362 417 41,000  Level Kansas City Center
08:44PM 37.9608 -93.7075 32° Northeast 371 427 41,000  Level Kansas City Center
08:45PM 38.0533 -93.6372 31° Northeast 379 436 41,000  Level Kansas City Center
08:46PM 38.1453 -93.5661 31° Northeast 384 442 41,000  Level Kansas City Center
08:47PM 38.2369 -93.4953 31° Northeast 383 441 41,000  Level Kansas City Center
08:48PM 38.3303 -93.4233 31° Northeast 387 445 41,000  Level Kansas City Center
08:49PM 38.4233 -93.3506 31° Northeast 389 448 41,000  Level Kansas City Center
08:50PM 38.5353 -93.2639 31° Northeast 389 448 41,000  Level Kansas City Center
08:51PM 38.6269 -93.1919 32° Northeast 387 445 41,000  Level Kansas City Center
08:52PM 38.7192 -93.1189 32° Northeast 387 445 41,000  Level Kansas City Center
08:53PM 38.8128 -93.0442 32° Northeast 390 449 41,000  Level Kansas City Center
08:54PM 38.9039 -92.9719 32° Northeast 386 444 41,000  Level Kansas City Center
08:55PM 38.9986 -92.8964 32° Northeast 384 442 41,000  Level Kansas City Center
08:56PM 39.0881 -92.8250 32° Northeast 382 440 41,000  Level Kansas City Center
08:57PM 39.1778 -92.7533 32° Northeast 381 438 41,000  Level Kansas City Center
08:58PM 39.2667 -92.6814 32° Northeast 382 440 41,000  Level Kansas City Center
08:59PM 39.3769 -92.5975 30° Northeast 384 442 41,000  Level Kansas City Center
09:00PM 39.4658 -92.5242 32° Northeast 383 441 41,000  Level Kansas City Center
09:02PM 39.5925 -92.4222 32° Northeast 387 445 41,000  Level Chicago Center
09:02PM 39.6447 -92.3800 32° Northeast 383 441 41,000  Level Kansas City Center
09:03PM 39.7344 -92.3081 32° Northeast 384 442 41,000  Level Kansas City Center
09:04PM 39.8244 -92.2342 32° Northeast 386 444 41,000  Level Kansas City Center
09:05PM 39.9314 -92.1447 33° Northeast 388 447 41,000  Level Kansas City Center
09:06PM 40.0200 -92.0725 32° Northeast 383 441 41,000  Level Kansas City Center
09:07PM 40.1094 -91.9994 32° Northeast 383 441 41,000  Level Kansas City Center
09:09PM 40.1981 -91.9258 32° Northeast 383 441 41,000  Level Kansas City Center
09:10PM 40.2864 -91.8506 33° Northeast 384 442 41,000  Level Kansas City Center
09:11PM 40.3933 -91.7617 32° Northeast 383 441 41,000  Level Kansas City Center
09:12PM 40.4833 -91.6858 33° Northeast 386 444 41,000  Level Kansas City Center
09:13PM 40.5747 -91.6111 32° Northeast 389 448 41,000  Level Kansas City Center
09:13PM 40.6300 -91.5656 32° Northeast 389 448 41,000  Level Chicago Center
09:14PM 40.7200 -91.4900 32° Northeast 388 447 41,000  Level Chicago Center
09:15PM 40.8094 -91.4142 33° Northeast 386 444 41,000  Level Chicago Center
09:16PM 40.9017 -91.3367 32° Northeast 394 453 41,000  Level Chicago Center
09:17PM 41.0025 -91.2503 33° Northeast 391 450 41,000  Level Chicago Center
09:18PM 41.0950 -91.1711 33° Northeast 394 453 41,000  Level Chicago Center
09:19PM 41.1867 -91.0925 33° Northeast 393 452 41,000  Level Chicago Center
09:20PM 41.2789 -91.0139 33° Northeast 393 452 41,000  Level Chicago Center
09:21PM 41.3894 -90.9189 33° Northeast 392 451 41,000  Level Chicago Center
09:22PM 41.4808 -90.8389 33° Northeast 392 451 41,000  Level Chicago Center
09:24PM 41.5628 -90.7683 33° Northeast 396 456 41,000  Level Chicago Center
09:25PM 41.6717 -90.6736 33° Northeast 393 452 41,000  Level Chicago Center
09:26PM 41.7575 -90.5986 33° Northeast 394 453 41,000  Level Chicago Center
09:27PM 41.8539 -90.5128 34° Northeast 397 457 41,000  Level Chicago Center
09:28PM 41.9461 -90.4319 33° Northeast 398 458 41,000  Level Chicago Center
09:29PM 42.0378 -90.3514 33° Northeast 399 459 41,000 -1,020 Level Chicago Center
09:30PM 42.1481 -90.2525 34° Northeast 401 461 38,900 -2,040 Descending Chicago Center
09:31PM 42.2378 -90.1739 33° Northeast 392 451 36,800 -2,040 Descending Chicago Center
09:32PM 42.3264 -90.0944 34° Northeast 388 447 34,800 -1,920 Descending Chicago Center
09:33PM 42.4164 -90.0114 34° Northeast 396 456 32,900 -1,860 Descending Chicago Center
09:34PM 42.5111 -89.9253 34° Northeast 410 472 31,100 -1,980 Descending Chicago Center
09:35PM 42.6150 -89.8322 33° Northeast 405 466 28,900 -1,980 Descending Chicago Center
09:36PM 42.7081 -89.7494 33° Northeast 401 461 27,100 -1,800 Descending Chicago Center
09:37PM 42.8136 -89.6525 34° Northeast 392 451 25,300 -1,740 Descending Chicago Center
09:38PM 42.9008 -89.5731 34° Northeast 380 437 23,600 -1,800 Descending Chicago Center
09:39PM 42.9881 -89.4933 34° Northeast 376 433 21,700 -1,860 Descending Chicago Center
09:40PM 43.0719 -89.4153 34° Northeast 365 420 19,800 -2,040 Descending Chicago Center
09:41PM 43.1547 -89.3392 34° Northeast 360 414 17,600 -1,980 Descending Chicago Center
09:42PM 43.2339 -89.2681 33° Northeast 347 399 15,800 -1,920 Descending Chicago Center
09:43PM 43.3186 -89.1881 34° Northeast 325 374 13,700 -1,920 Descending Chicago Center
09:44PM 43.3911 -89.1206 34° Northeast 316 364 11,900 -1,380 Descending Chicago Center
09:45PM 43.4592 -89.0569 34° Northeast 302 348 10,900 -540 Descending Chicago Center
09:46PM 43.5233 -88.9958 35° Northeast 285 328 10,900  Level Chicago Center
09:47PM 43.5892 -88.9331 35° Northeast 285 328 10,900 -420 Level Chicago Center
09:48PM 43.6506 -88.8761 34° Northeast 271 312 10,100 -1,380 Descending Chicago Center
09:49PM 43.7100 -88.8211 34° Northeast 262 302 8,100 -2,040 Descending Chicago Center
09:50PM 43.7694 -88.7653 34° Northeast 258 297 6,000 -1,920 Descending Chicago Center
09:51PM 43.8317 -88.7122 32° Northeast 260 299 4,200 -1,380 Descending Chicago Center
09:52PM 43.9025 -88.6697 23° Northeast 246 283 3,200 -840 Descending Chicago Center
09:53PM 43.9447 -88.6428 25° Northeast 192 221 2,500 -720 Descending Chicago Center
09:54PM 43.9806 -88.6222 22° Northeast 160 184 1,800 -660 Descending Chicago Center
09:55PM 44.0000 -88.6167 12° North 120 138 1,500 -540 Descending KMKE
09:57PM 43.9833 -88.5500 26° Northeast  Level FlightAware Approximate
10:04PM 43.9845 -88.5569 26° Northeast  Level Estimated